Pellston, Michigan
Current Conditions -  °F | °C
As of 11:54 AM on Sunday 21 Dec 2014 (Local Time) from KPLN Reporting Station
Overcast Overcast  
Wind Chill: 20°   Ceiling: 3700
Heat Index: 28°   Visibility: 8mi
Dew Point: 24°   Wind: 8mph
Humidity: 85%   Direction: 140°SE
Pressure: 30.19"   Gusts: NA
Location:  45.55°N, 84.78°W
Report Text: KPLN 211654Z AUTO 14007KT 8SM OVC037 M02/M04 A3019 RMK AO2 SLP237 T10221044
Loading
Personal Weather Stations






























Interactive Weather Map New forecast layout! Learn more

10-Day Weather Forecast

Advertisements
Track Severe Weather on mobile